Impacts TAF Board INFO
FOR SITUATIONAL AWARENESS. NOT TO BE USED FOR FLIGHT PLANNING PURPOSES.
IDs:

KPHL - Philadelphia Intl, PA, US

Issued at 1726 UTC 23 Jan 2017
Updated at 2054 UTC 23 Jan 2017
Potential Impact None Slight Moderate High
Time2038Z 23/21Z 23/22Z 23/23Z 24/00Z 24/01Z 24/02Z 24/03Z 24/04Z 24/05Z 24/06Z 24/07Z 24/08Z 24/09Z
Type OBS PRVL PRVL PRVL PRVL PRVL PRVL PRVL PRVL PRVL PRVL PRVL PRVL PRVL
VIS 7 3 3 2 2 2 2 2 2 2 2 2 5 5
CIG 14 10 10 7 7 7 7 7 7 7 7 7 7 7
Cover OVC OVC OVC OVC OVC OVC OVC OVC OVC OVC OVC OVC OVC OVC
FltCat MVFR MVFR MVFR IFR IFR IFR IFR IFR IFR IFR IFR IFR IFR IFR
WX -RA -RA BR -RA BR RA BR RA BR RA BR RA BR RA BR RA BR RA BR RA BR RA BR -RA BR -RA BR
WDir 50 50 50 30 30 30 30 30 30 30 30 30 360 360
WSpd 24 30 30 25 25 25 25 25 25 25 25 25 20 20
WGst 34 45 45 35 35 35 35 35 35 35 35 35 30 30

Raw TAF
KPHL 231726Z 2318/2424 06025G40KT 6SM -RA BR OVC015
  FM232000 05030G45KT 3SM -RA BR OVC010
  FM232300 03025G35KT 2SM RA BR OVC007
  FM240800 36020G30KT 5SM -RA BR OVC007
  FM241800 33015G25KT P6SM OVC015


Raw METAR
KPHL 232038Z 05024G34KT 7SM -RA BKN014 OVC020 04/02 A2954 RMK AO2 PK WND 04036/2018 P0005 T00390017
KPHL 232015Z 05024G33KT 6SM -RA BR BKN015 OVC020 04/02 A2952 RMK AO2 PK WND 08033/2008 PRESFR P0003 T00390017
KPHL 231954Z 05016G37KT 3SM RA BR BKN014 OVC021 04/02 A2955 RMK AO2 PK WND 05042/1905 SLP004 VIS 2V4 P0012 T00390017
KPHL 231937Z 06021G32KT 4SM RA BR BKN014 OVC022 04/02 A2955 RMK AO2 PK WND 05042/1905 P0006 T00390022
KPHL 231854Z 06021G37KT 4SM -RA BR BKN015 OVC022 04/02 A2955 RMK AO2 PK WND 05040/1824 SLP006 P0008 T00390022
KPHL 231821Z 06022G31KT 4SM RA BR BKN015 OVC025 04/02 A2957 RMK AO2 PK WND 05032/1757 P0005 T00390022
KPHL 231754Z 07023G36KT 4SM -RA BR OVC014 04/02 A2959 RMK AO2 PK WND 08036/1754 SLP019 P0000 60001 T00390022 10061 20039 56037

METAR Board
Radar Display
Forecast Discussion

FOR SITUATIONAL AWARENESS. NOT TO BE USED FOR FLIGHT PLANNING PURPOSES.

Page loaded:  20:54 UTC  |   12:54 PM Pacific  |   01:54 PM Mountain  |   02:54 PM Central  |   03:54 PM Eastern

 

ADVISORIES

FORECASTS

FORECASTS

OBSERVATIONS

USER TOOLS

ABOUT US